createdAt,value
2023-05-22T00:00:12.884Z,1026.00
2023-05-22T00:01:12.912Z,1027.00
2023-05-22T00:02:13.015Z,1024.00
2023-05-22T00:03:13.042Z,1052.00
2023-05-22T00:04:13.047Z,1119.00
2023-05-22T00:05:13.155Z,1115.00
2023-05-22T00:06:13.150Z,1153.00
2023-05-22T00:07:13.159Z,1140.00
2023-05-22T00:08:13.206Z,1122.00
2023-05-22T00:09:13.229Z,1134.00
2023-05-22T00:10:13.367Z,1089.00
2023-05-22T00:11:13.319Z,1136.00
2023-05-22T00:12:13.406Z,1167.00
2023-05-22T00:13:13.426Z,1202.00
2023-05-22T00:14:13.573Z,1222.00
2023-05-22T00:15:13.527Z,1204.00
2023-05-22T00:16:13.528Z,1175.00
2023-05-22T00:17:13.793Z,1191.00
2023-05-22T00:18:13.669Z,1232.00
2023-05-22T00:19:13.882Z,1229.00
2023-05-22T00:20:13.741Z,1206.00
2023-05-22T00:21:13.758Z,1182.00
2023-05-22T00:22:13.846Z,1204.00
2023-05-22T00:23:15.541Z,1188.00
2023-05-22T00:24:13.948Z,1198.00
2023-05-22T00:25:13.915Z,1263.00
2023-05-22T00:26:14.001Z,1244.00
2023-05-22T00:27:14.010Z,1255.00
2023-05-22T00:28:14.078Z,1263.00
2023-05-22T00:29:14.135Z,1261.00
2023-05-22T00:30:14.197Z,1266.00
2023-05-22T00:31:14.220Z,1295.00
2023-05-22T00:32:14.274Z,1277.00
2023-05-22T00:33:14.336Z,1262.00
2023-05-22T00:34:14.427Z,1260.00
2023-05-22T00:35:14.411Z,1269.00
2023-05-22T00:36:14.440Z,1266.00
2023-05-22T00:37:14.479Z,1286.00
2023-05-22T00:38:14.538Z,1287.00
2023-05-22T00:39:14.617Z,1288.00
2023-05-22T00:40:14.647Z,1302.00
2023-05-22T00:41:14.681Z,1317.00
2023-05-22T00:42:14.760Z,1302.00
2023-05-22T00:43:14.758Z,1344.00
2023-05-22T00:44:14.841Z,1353.00
2023-05-22T00:45:14.904Z,1399.00
2023-05-22T00:46:14.941Z,1396.00
2023-05-22T00:47:14.979Z,1382.00
2023-05-22T00:48:15.017Z,1376.00
2023-05-22T00:49:15.048Z,1343.00
2023-05-22T00:50:15.101Z,1366.00
2023-05-22T00:51:15.160Z,1380.00
2023-05-22T00:52:15.218Z,1391.00
2023-05-22T00:53:15.238Z,1372.00
2023-05-22T00:54:15.270Z,1339.00
2023-05-22T00:55:15.287Z,1371.00
2023-05-22T00:56:15.373Z,1366.00
2023-05-22T00:57:15.389Z,1365.00
2023-05-22T00:58:15.445Z,1391.00
2023-05-22T00:59:15.487Z,1400.00
2023-05-22T01:00:15.520Z,1370.00
2023-05-22T01:01:15.623Z,1362.00
2023-05-22T01:02:15.635Z,1383.00
2023-05-22T01:03:15.709Z,1378.00
2023-05-22T01:04:15.829Z,1353.00
2023-05-22T01:05:15.678Z,1369.00
2023-05-22T01:06:15.731Z,1370.00
2023-05-22T01:07:15.760Z,1374.00
2023-05-22T01:08:15.803Z,1404.00
2023-05-22T01:09:15.854Z,1370.00
2023-05-22T01:10:15.864Z,1366.00
2023-05-22T01:11:15.918Z,1365.00
2023-05-22T01:12:15.958Z,1379.00
2023-05-22T01:13:15.981Z,1402.00
2023-05-22T01:14:16.009Z,1419.00
2023-05-22T01:15:16.049Z,1384.00
2023-05-22T01:16:16.117Z,1401.00
2023-05-22T01:17:16.104Z,1449.00
2023-05-22T01:18:16.172Z,1496.00
2023-05-22T01:19:16.279Z,1588.00
2023-05-22T01:20:16.148Z,1610.00
2023-05-22T01:21:16.177Z,1638.00
2023-05-22T01:22:16.210Z,1601.00
2023-05-22T01:23:16.332Z,1566.00
2023-05-22T01:24:16.315Z,1558.00
2023-05-22T01:25:16.269Z,1547.00
2023-05-22T01:26:16.263Z,1576.00
2023-05-22T01:27:16.285Z,1587.00
2023-05-22T01:28:16.270Z,1623.00
2023-05-22T01:29:16.298Z,1648.00
2023-05-22T01:30:16.310Z,1647.00
2023-05-22T01:31:16.413Z,1649.00
2023-05-22T01:32:16.354Z,1654.00
2023-05-22T01:33:16.439Z,1643.00
2023-05-22T01:34:16.352Z,1623.00
2023-05-22T01:35:16.334Z,1614.00
2023-05-22T01:36:16.325Z,1619.00
2023-05-22T01:37:16.326Z,1598.00
2023-05-22T01:38:16.331Z,1606.00
2023-05-22T01:39:16.336Z,1597.00
2023-05-22T01:40:16.312Z,1596.00
2023-05-22T01:41:16.295Z,1588.00
2023-05-22T01:42:16.298Z,1576.00
2023-05-22T01:43:16.327Z,1581.00
2023-05-22T01:44:16.317Z,1568.00
2023-05-22T01:45:16.288Z,1586.00
2023-05-22T01:46:16.299Z,1576.00
2023-05-22T01:47:16.265Z,1557.00
2023-05-22T01:48:16.313Z,1555.00
2023-05-22T01:49:16.282Z,1569.00
2023-05-22T01:50:16.317Z,1584.00
2023-05-22T01:51:16.294Z,1568.00
2023-05-22T01:52:16.330Z,1568.00
2023-05-22T01:53:16.409Z,1581.00
2023-05-22T01:54:16.411Z,1579.00
2023-05-22T01:55:16.452Z,1584.00
2023-05-22T01:56:16.498Z,1581.00
2023-05-22T01:57:16.532Z,1604.00
2023-05-22T01:58:16.608Z,1597.00
2023-05-22T01:59:16.610Z,1599.00
2023-05-22T02:00:16.646Z,1602.00
2023-05-22T02:01:16.735Z,1583.00
2023-05-22T02:02:16.758Z,1584.00
2023-05-22T02:03:16.861Z,1585.00
2023-05-22T02:04:16.801Z,1586.00
2023-05-22T02:05:16.862Z,1595.00
2023-05-22T02:06:16.912Z,1589.00
2023-05-22T02:07:16.966Z,1600.00
2023-05-22T02:08:16.981Z,1622.00
2023-05-22T02:09:17.053Z,1614.00
2023-05-22T02:10:17.132Z,1612.00
2023-05-22T02:11:17.197Z,1625.00
2023-05-22T02:12:17.198Z,1627.00
2023-05-22T02:13:17.218Z,1620.00
2023-05-22T02:14:17.330Z,1627.00
2023-05-22T02:15:17.352Z,1618.00
2023-05-22T02:16:17.433Z,1617.00
2023-05-22T02:17:17.466Z,1614.00
2023-05-22T02:18:17.501Z,1632.00
2023-05-22T02:19:17.654Z,1626.00
2023-05-22T02:20:17.627Z,1626.00
2023-05-22T02:21:17.699Z,1616.00
2023-05-22T02:22:17.791Z,1608.00
2023-05-22T02:23:17.848Z,1613.00
2023-05-22T02:24:17.901Z,1607.00
2023-05-22T02:25:17.999Z,1628.00
2023-05-22T02:26:18.054Z,1617.00
2023-05-22T02:27:18.077Z,1616.00
2023-05-22T02:28:18.167Z,1607.00
2023-05-22T02:29:18.243Z,1619.00
2023-05-22T02:30:18.268Z,1621.00
2023-05-22T02:31:18.410Z,1619.00
2023-05-22T02:32:18.386Z,1617.00
2023-05-22T02:33:18.461Z,1618.00
2023-05-22T02:34:18.514Z,1619.00
2023-05-22T02:35:18.584Z,1624.00
2023-05-22T02:36:18.648Z,1618.00
2023-05-22T02:37:18.697Z,1610.00
2023-05-22T02:38:18.766Z,1605.00
2023-05-22T02:39:18.840Z,1599.00
2023-05-22T02:40:18.896Z,1615.00
2023-05-22T02:41:18.942Z,1599.00
2023-05-22T02:42:19.025Z,1585.00
2023-05-22T02:43:19.073Z,1593.00
2023-05-22T02:44:19.137Z,1591.00
2023-05-22T02:45:19.166Z,1601.00
2023-05-22T02:46:19.289Z,1601.00
2023-05-22T02:47:19.290Z,1596.00
2023-05-22T02:48:19.374Z,1574.00
2023-05-22T02:49:19.423Z,1566.00
2023-05-22T02:50:19.507Z,1560.00
2023-05-22T02:51:19.530Z,1552.00
2023-05-22T02:52:19.610Z,1549.00
2023-05-22T02:53:20.202Z,1555.00
2023-05-22T02:54:19.722Z,1546.00
2023-05-22T02:55:19.774Z,1546.00
2023-05-22T02:56:19.867Z,1544.00
2023-05-22T02:57:19.927Z,1543.00
2023-05-22T02:58:19.956Z,1552.00
2023-05-22T02:59:20.058Z,1558.00
2023-05-22T03:00:20.078Z,1543.00
2023-05-22T03:01:20.152Z,1559.00
2023-05-22T03:02:20.193Z,1549.00
2023-05-22T03:03:20.477Z,1552.00
2023-05-22T03:04:20.327Z,1555.00
2023-05-22T03:05:20.409Z,1561.00
2023-05-22T03:06:20.444Z,1540.00
2023-05-22T03:07:20.505Z,1540.00
2023-05-22T03:08:20.570Z,1543.00
2023-05-22T03:09:20.638Z,1535.00
2023-05-22T03:10:20.719Z,1522.00
2023-05-22T03:11:20.780Z,1519.00
2023-05-22T03:12:20.820Z,1519.00
2023-05-22T03:13:20.897Z,1530.00
2023-05-22T03:14:20.935Z,1525.00
2023-05-22T03:15:20.999Z,1525.00
2023-05-22T03:16:21.121Z,1526.00
2023-05-22T03:17:21.100Z,1539.00
2023-05-22T03:18:21.178Z,1522.00
2023-05-22T03:19:21.280Z,1545.00
2023-05-22T03:20:21.313Z,1540.00
2023-05-22T03:21:21.367Z,1543.00
2023-05-22T03:22:21.452Z,1548.00
2023-05-22T03:23:21.491Z,1552.00
2023-05-22T03:24:21.583Z,1562.00
2023-05-22T03:25:21.619Z,1562.00
2023-05-22T03:26:21.698Z,1578.00
2023-05-22T03:27:21.758Z,1565.00
2023-05-22T03:28:21.788Z,1555.00
2023-05-22T03:29:21.919Z,1567.00
2023-05-22T03:30:21.966Z,1563.00
2023-05-22T03:31:21.993Z,1568.00
2023-05-22T03:32:22.080Z,1568.00
2023-05-22T03:33:22.142Z,1580.00
2023-05-22T03:34:22.187Z,1581.00
2023-05-22T03:35:22.252Z,1591.00
2023-05-22T03:36:22.295Z,1583.00
2023-05-22T03:37:22.367Z,1580.00
2023-05-22T03:38:22.438Z,1605.00
2023-05-22T03:39:22.493Z,1590.00
2023-05-22T03:40:22.584Z,1591.00
2023-05-22T03:41:22.644Z,1589.00
2023-05-22T03:42:22.675Z,1578.00
2023-05-22T03:43:22.777Z,1593.00
2023-05-22T03:44:22.824Z,1614.00
2023-05-22T03:45:22.892Z,1594.00
2023-05-22T03:46:23.041Z,1613.00
2023-05-22T03:47:23.016Z,1608.00
2023-05-22T03:48:23.068Z,1631.00
2023-05-22T03:49:23.110Z,1616.00
2023-05-22T03:50:23.175Z,1625.00
2023-05-22T03:51:23.178Z,1633.00
2023-05-22T03:52:23.286Z,1642.00
2023-05-22T03:53:23.316Z,1638.00
2023-05-22T03:54:23.360Z,1622.00
2023-05-22T03:55:24.264Z,1633.00
2023-05-22T03:56:23.453Z,1637.00
2023-05-22T03:57:23.551Z,1625.00
2023-05-22T03:58:23.554Z,1625.00
2023-05-22T03:59:23.601Z,1613.00
2023-05-22T04:00:25.706Z,1612.00
2023-05-22T04:01:23.693Z,1608.00
2023-05-22T04:02:23.796Z,1592.00
2023-05-22T04:03:23.716Z,1601.00
2023-05-22T04:04:23.649Z,1611.00
2023-05-22T04:05:23.724Z,1599.00
2023-05-22T04:06:23.596Z,1611.00
2023-05-22T04:07:23.607Z,1608.00
2023-05-22T04:08:23.640Z,1625.00
2023-05-22T04:09:23.609Z,1636.00
2023-05-22T04:10:23.614Z,1624.00
2023-05-22T04:11:23.581Z,1613.00
2023-05-22T04:12:23.583Z,1601.00
2023-05-22T04:13:23.570Z,1580.00
2023-05-22T04:14:23.568Z,1587.00
2023-05-22T04:15:23.599Z,1582.00
2023-05-22T04:16:23.619Z,1588.00
2023-05-22T04:17:23.569Z,1608.00
2023-05-22T04:18:23.536Z,1609.00
2023-05-22T04:19:23.604Z,1631.00
2023-05-22T04:20:23.557Z,1639.00
2023-05-22T04:21:23.526Z,1634.00
2023-05-22T04:22:23.484Z,1625.00
2023-05-22T04:23:23.510Z,1644.00
2023-05-22T04:24:23.501Z,1655.00
2023-05-22T04:25:23.495Z,1651.00
2023-05-22T04:26:23.511Z,1648.00
2023-05-22T04:27:23.479Z,1653.00
2023-05-22T04:28:23.484Z,1669.00
2023-05-22T04:29:23.466Z,1661.00
2023-05-22T04:30:23.460Z,1653.00
2023-05-22T04:31:23.530Z,1658.00
2023-05-22T04:32:23.467Z,1664.00
2023-05-22T04:33:23.438Z,1640.00
2023-05-22T04:34:23.428Z,1666.00
2023-05-22T04:35:23.453Z,1675.00
2023-05-22T04:36:23.420Z,1659.00
2023-05-22T04:37:23.384Z,1654.00
2023-05-22T04:38:23.400Z,1643.00
2023-05-22T04:39:23.402Z,1647.00
2023-05-22T04:40:23.385Z,1640.00
2023-05-22T04:41:23.357Z,1640.00
2023-05-22T04:42:23.378Z,1651.00
2023-05-22T04:43:23.382Z,1649.00
2023-05-22T04:44:23.370Z,1649.00
2023-05-22T04:45:23.341Z,1646.00
2023-05-22T04:46:23.362Z,1663.00
2023-05-22T04:47:23.421Z,1667.00
2023-05-22T04:48:23.374Z,1666.00
2023-05-22T04:49:23.337Z,1661.00
2023-05-22T04:50:23.344Z,1654.00
2023-05-22T04:51:23.317Z,1664.00
2023-05-22T04:52:23.411Z,1671.00
2023-05-22T04:53:23.354Z,1687.00
2023-05-22T04:54:23.368Z,1683.00
2023-05-22T04:55:23.286Z,1674.00
2023-05-22T04:56:35.449Z,1676.00
2023-05-22T04:57:24.328Z,1678.00
2023-05-22T04:58:23.297Z,1679.00
2023-05-22T04:59:23.288Z,1675.00
2023-05-22T05:00:23.285Z,1674.00
2023-05-22T05:01:32.890Z,1694.00
2023-05-22T05:02:23.263Z,1679.00
2023-05-22T05:03:23.311Z,1685.00
2023-05-22T05:04:23.309Z,1697.00
2023-05-22T05:05:23.256Z,1707.00
2023-05-22T05:06:23.256Z,1720.00
2023-05-22T05:07:23.229Z,1725.00
2023-05-22T05:08:23.267Z,1714.00
2023-05-22T05:09:23.222Z,1713.00
2023-05-22T05:10:23.230Z,1710.00
2023-05-22T05:11:23.196Z,1717.00
2023-05-22T05:12:23.211Z,1717.00
2023-05-22T05:13:23.185Z,1708.00
2023-05-22T05:14:23.185Z,1717.00
2023-05-22T05:15:23.194Z,1724.00
2023-05-22T05:16:23.211Z,1721.00
2023-05-22T05:17:23.176Z,1726.00
2023-05-22T05:18:23.128Z,1767.00
2023-05-22T05:19:23.242Z,1745.00
2023-05-22T05:20:23.161Z,1768.00
2023-05-22T05:21:23.141Z,1741.00
2023-05-22T05:22:23.181Z,1734.00
2023-05-22T05:23:23.137Z,1760.00
2023-05-22T05:24:23.141Z,1748.00
2023-05-22T05:25:23.094Z,1722.00
2023-05-22T05:26:23.078Z,1721.00
2023-05-22T05:27:23.109Z,1738.00
2023-05-22T05:28:23.101Z,1724.00
2023-05-22T05:29:23.111Z,1716.00
2023-05-22T05:30:23.080Z,1722.00
2023-05-22T05:31:23.071Z,1741.00
2023-05-22T05:32:23.232Z,1722.00
2023-05-22T05:33:23.054Z,1744.00
2023-05-22T05:34:23.311Z,1805.00
2023-05-22T05:35:23.013Z,1853.00
2023-05-22T05:36:23.011Z,1906.00
2023-05-22T05:37:23.033Z,2010.00
2023-05-22T05:38:23.053Z,2083.00
2023-05-22T05:39:23.472Z,2179.00
2023-05-22T05:40:23.042Z,2233.00
2023-05-22T05:41:23.070Z,2279.00
2023-05-22T05:42:22.989Z,2277.00
2023-05-22T05:43:23.021Z,2314.00
2023-05-22T05:44:23.058Z,2341.00
2023-05-22T05:45:22.974Z,2383.00
2023-05-22T05:46:30.661Z,2393.00
2023-05-22T05:47:22.974Z,2395.00
2023-05-22T05:48:22.965Z,2405.00
2023-05-22T05:49:23.326Z,2419.00
2023-05-22T05:50:22.936Z,2447.00
2023-05-22T05:51:22.929Z,2517.00
2023-05-22T05:52:22.947Z,2553.00
2023-05-22T05:53:22.946Z,2599.00
2023-05-22T05:54:23.410Z,2615.00
2023-05-22T05:55:22.942Z,2651.00
2023-05-22T05:56:22.948Z,2661.00
2023-05-22T05:57:22.904Z,2683.00
2023-05-22T05:58:23.898Z,2703.00
2023-05-22T05:59:22.916Z,2715.00
2023-05-22T06:00:22.970Z,2720.00
2023-05-22T06:01:22.865Z,2741.00
2023-05-22T06:02:22.959Z,2758.00
2023-05-22T06:03:22.975Z,2770.00
2023-05-22T06:04:22.840Z,2783.00
2023-05-22T06:05:22.934Z,2799.00
2023-05-22T06:06:22.872Z,2808.00
2023-05-22T06:07:22.874Z,2821.00
2023-05-22T06:08:22.877Z,2841.00
2023-05-22T06:09:22.900Z,2839.00
2023-05-22T06:10:22.894Z,2857.00
2023-05-22T06:11:22.903Z,2867.00
2023-05-22T06:12:22.950Z,2874.00
2023-05-22T06:13:22.981Z,2895.00
2023-05-22T06:14:22.956Z,2898.00
2023-05-22T06:15:22.925Z,2902.00
2023-05-22T06:16:23.018Z,2920.00
2023-05-22T06:17:22.965Z,2936.00
2023-05-22T06:18:22.993Z,2932.00
2023-05-22T06:19:23.408Z,2948.00
2023-05-22T06:20:22.978Z,2962.00
2023-05-22T06:21:22.987Z,2958.00
2023-05-22T06:22:23.027Z,2948.00
2023-05-22T06:23:23.040Z,2952.00
2023-05-22T06:24:23.382Z,2971.00
2023-05-22T06:25:23.088Z,2969.00
2023-05-22T06:26:23.053Z,2954.00
2023-05-22T06:27:23.183Z,2981.00
2023-05-22T06:28:23.091Z,2983.00
2023-05-22T06:29:23.372Z,2994.00
2023-05-22T06:30:38.982Z,2995.00
2023-05-22T06:31:24.100Z,2997.00
2023-05-22T06:32:23.217Z,3001.00
2023-05-22T06:33:23.264Z,3011.00
2023-05-22T06:34:23.399Z,3034.00
2023-05-22T06:35:23.083Z,3045.00
2023-05-22T06:36:23.128Z,3044.00
2023-05-22T06:37:23.040Z,3077.00
2023-05-22T06:38:23.014Z,3113.00
2023-05-22T06:39:23.071Z,3092.00
2023-05-22T06:40:23.018Z,3063.00
2023-05-22T06:41:23.031Z,3034.00
2023-05-22T06:42:22.986Z,3019.00
2023-05-22T06:43:23.236Z,3003.00
2023-05-22T06:44:23.485Z,3002.00
2023-05-22T06:45:23.177Z,2995.00
2023-05-22T06:46:25.109Z,3007.00
2023-05-22T06:47:23.135Z,3016.00
2023-05-22T06:48:23.179Z,3038.00
2023-05-22T06:49:23.395Z,3046.00
2023-05-22T06:50:22.913Z,3052.00
2023-05-22T06:51:22.992Z,3063.00
2023-05-22T06:52:22.960Z,3079.00
2023-05-22T06:53:23.027Z,3109.00
2023-05-22T06:54:22.929Z,3108.00
2023-05-22T06:55:23.007Z,3099.00
2023-05-22T06:56:22.945Z,3088.00
2023-05-22T06:57:22.895Z,3056.00
2023-05-22T06:58:22.919Z,3030.00
2023-05-22T06:59:22.978Z,2998.00
2023-05-22T07:00:22.895Z,2972.00
2023-05-22T07:01:23.092Z,2938.00
2023-05-22T07:02:22.872Z,2773.00
2023-05-22T07:03:22.878Z,2748.00
2023-05-22T07:04:23.005Z,2723.00
2023-05-22T07:05:22.987Z,2693.00
2023-05-22T07:06:22.915Z,2704.00
2023-05-22T07:07:22.925Z,2706.00
2023-05-22T07:08:22.858Z,2698.00
2023-05-22T07:09:22.858Z,2709.00
2023-05-22T07:10:22.880Z,2698.00
2023-05-22T07:11:22.824Z,2641.00
2023-05-22T07:12:22.787Z,2628.00
2023-05-22T07:13:22.844Z,2641.00
2023-05-22T07:14:22.873Z,2633.00
2023-05-22T07:15:22.893Z,2597.00
2023-05-22T07:16:22.856Z,2591.00
2023-05-22T07:17:22.893Z,2598.00
2023-05-22T07:18:22.776Z,2587.00
2023-05-22T07:19:22.835Z,2567.00
2023-05-22T07:20:22.757Z,2564.00
2023-05-22T07:21:22.750Z,2553.00
2023-05-22T07:22:22.722Z,2533.00
2023-05-22T07:23:24.378Z,2544.00
2023-05-22T07:24:22.857Z,2575.00
2023-05-22T07:25:22.706Z,2572.00
2023-05-22T07:26:22.725Z,2565.00
2023-05-22T07:27:22.742Z,2572.00
2023-05-22T07:28:22.681Z,2592.00
2023-05-22T07:29:23.385Z,2605.00
2023-05-22T07:30:22.685Z,2623.00
2023-05-22T07:31:22.735Z,2656.00
2023-05-22T07:32:22.798Z,2691.00
2023-05-22T07:33:22.688Z,2708.00
2023-05-22T07:34:22.620Z,2717.00
2023-05-22T07:35:22.680Z,2742.00
2023-05-22T07:36:22.613Z,2738.00
2023-05-22T07:37:22.613Z,2753.00
2023-05-22T07:38:22.596Z,2655.00
2023-05-22T07:39:22.617Z,2686.00
2023-05-22T07:40:24.349Z,2517.00
2023-05-22T07:41:22.646Z,2265.00
2023-05-22T07:42:22.637Z,2340.00
2023-05-22T07:43:22.694Z,2384.00
2023-05-22T07:44:22.693Z,2413.00
2023-05-22T07:45:22.915Z,2420.00
2023-05-22T07:46:22.764Z,2436.00
2023-05-22T07:47:22.743Z,2455.00
2023-05-22T07:48:22.708Z,2465.00
2023-05-22T07:49:22.716Z,2473.00
2023-05-22T07:50:22.962Z,2475.00
2023-05-22T07:51:22.733Z,2495.00
2023-05-22T07:52:22.798Z,2469.00
2023-05-22T07:53:22.866Z,2452.00
2023-05-22T07:54:22.892Z,2448.00
2023-05-22T07:55:22.860Z,2418.00
2023-05-22T07:56:22.863Z,2409.00
2023-05-22T07:57:22.878Z,2277.00
2023-05-22T07:58:22.894Z,2249.00
2023-05-22T07:59:22.878Z,2242.00
2023-05-22T08:00:22.915Z,2256.00
2023-05-22T08:01:22.910Z,2218.00
2023-05-22T08:02:23.020Z,2224.00
2023-05-22T08:03:24.149Z,2221.00
2023-05-22T08:04:23.059Z,2222.00
2023-05-22T08:05:23.483Z,2207.00
2023-05-22T08:06:22.929Z,2219.00
2023-05-22T08:07:23.013Z,2192.00
2023-05-22T08:08:22.964Z,2196.00
2023-05-22T08:09:22.962Z,2168.00
2023-05-22T08:10:23.431Z,2173.00
2023-05-22T08:11:22.983Z,2195.00
2023-05-22T08:12:23.033Z,2195.00
2023-05-22T08:13:23.114Z,2191.00
2023-05-22T08:14:23.161Z,2183.00
2023-05-22T08:15:23.264Z,2209.00
2023-05-22T08:16:23.318Z,2247.00
2023-05-22T08:17:23.314Z,2274.00
2023-05-22T08:18:23.302Z,2326.00
2023-05-22T08:19:23.549Z,2394.00
2023-05-22T08:20:23.430Z,2419.00
2023-05-22T08:21:23.532Z,2471.00
2023-05-22T08:22:23.518Z,2527.00
2023-05-22T08:23:23.593Z,2552.00
2023-05-22T08:24:23.548Z,2595.00
2023-05-22T08:25:23.562Z,2616.00
2023-05-22T08:26:23.601Z,2671.00
2023-05-22T08:27:23.608Z,2702.00
2023-05-22T08:28:23.658Z,2742.00
2023-05-22T08:29:23.625Z,2766.00
2023-05-22T08:30:23.857Z,2753.00
2023-05-22T08:31:23.948Z,2792.00
2023-05-22T08:32:23.780Z,2835.00
2023-05-22T08:33:23.692Z,2858.00
2023-05-22T08:34:23.717Z,2838.00
2023-05-22T08:35:23.736Z,2834.00
2023-05-22T08:36:23.753Z,2767.00
2023-05-22T08:37:23.820Z,2727.00
2023-05-22T08:38:23.830Z,2659.00
2023-05-22T08:39:23.871Z,2519.00
2023-05-22T08:40:23.972Z,2476.00
2023-05-22T08:41:24.468Z,2044.00
2023-05-22T08:42:24.030Z,1508.00
2023-05-22T08:43:23.982Z,1361.00
2023-05-22T08:44:23.990Z,1090.00
2023-05-22T08:45:24.022Z,797.00
2023-05-22T08:46:24.463Z,663.00
2023-05-22T08:47:24.058Z,637.00
2023-05-22T08:48:24.021Z,625.00
2023-05-22T08:49:24.379Z,540.00
2023-05-22T08:50:24.043Z,478.00
2023-05-22T08:51:24.083Z,515.00
2023-05-22T08:52:24.133Z,569.00
2023-05-22T08:53:24.105Z,636.00
2023-05-22T08:54:24.153Z,736.00
2023-05-22T08:55:24.120Z,793.00
2023-05-22T08:56:25.176Z,902.00
2023-05-22T08:57:24.277Z,991.00
2023-05-22T08:58:24.272Z,1070.00
2023-05-22T08:59:24.295Z,1138.00
2023-05-22T09:00:24.345Z,1175.00
2023-05-22T09:01:24.460Z,1285.00
2023-05-22T09:02:24.369Z,1362.00
2023-05-22T09:03:24.478Z,1431.00
2023-05-22T09:04:24.460Z,1485.00
2023-05-22T09:05:24.531Z,1587.00
2023-05-22T09:06:24.948Z,1667.00
2023-05-22T09:07:24.835Z,1751.00
2023-05-22T09:08:24.712Z,1739.00
2023-05-22T09:09:25.410Z,1780.00
2023-05-22T09:10:24.814Z,1819.00
2023-05-22T09:11:24.931Z,1822.00
2023-05-22T09:12:24.985Z,1913.00
2023-05-22T09:13:25.034Z,1963.00
2023-05-22T09:14:25.117Z,2005.00
2023-05-22T09:15:25.108Z,2040.00
2023-05-22T09:16:25.294Z,2076.00
2023-05-22T09:17:25.276Z,2101.00
2023-05-22T09:18:25.306Z,2122.00
2023-05-22T09:19:25.425Z,2144.00
2023-05-22T09:20:25.376Z,2144.00
2023-05-22T09:21:30.302Z,2144.00
2023-05-22T09:22:26.448Z,2139.00
2023-05-22T09:23:25.417Z,2090.00
2023-05-22T09:24:25.439Z,2097.00
2023-05-22T09:25:25.434Z,2071.00
2023-05-22T09:26:25.426Z,2056.00
2023-05-22T09:27:25.403Z,2056.00
2023-05-22T09:28:25.407Z,2111.00
2023-05-22T09:29:25.396Z,2142.00
2023-05-22T09:30:25.394Z,2171.00
2023-05-22T09:31:25.439Z,2128.00
2023-05-22T09:32:25.461Z,2182.00
2023-05-22T09:33:25.405Z,2132.00
2023-05-22T09:34:25.445Z,2078.00
2023-05-22T09:35:25.502Z,2070.00
2023-05-22T09:36:25.491Z,2080.00
2023-05-22T09:37:25.574Z,2087.00
2023-05-22T09:38:25.581Z,2103.00
2023-05-22T09:39:25.791Z,2128.00
2023-05-22T09:40:25.618Z,2129.00
2023-05-22T09:41:25.971Z,1963.00
2023-05-22T09:42:25.722Z,1898.00
2023-05-22T09:43:25.856Z,1304.00
2023-05-22T09:44:25.839Z,1000.00
2023-05-22T09:45:25.899Z,984.00
2023-05-22T09:46:26.062Z,986.00
2023-05-22T09:47:26.082Z,990.00
2023-05-22T09:48:26.095Z,1026.00
2023-05-22T09:49:26.174Z,1077.00
2023-05-22T09:50:26.204Z,1156.00
2023-05-22T09:51:26.595Z,1196.00
2023-05-22T09:52:26.328Z,1225.00
2023-05-22T09:53:26.407Z,1355.00
2023-05-22T09:54:26.417Z,1435.00
2023-05-22T09:55:26.477Z,1481.00
2023-05-22T09:56:37.790Z,1550.00
2023-05-22T09:57:27.492Z,1552.00
2023-05-22T09:58:26.499Z,1565.00
2023-05-22T09:59:26.481Z,1603.00
2023-05-22T10:00:26.503Z,1659.00
2023-05-22T10:01:26.581Z,1743.00
2023-05-22T10:02:26.641Z,1763.00
2023-05-22T10:03:26.567Z,1782.00
2023-05-22T10:04:26.636Z,1788.00
2023-05-22T10:05:26.691Z,1789.00
2023-05-22T10:06:26.645Z,1762.00
2023-05-22T10:07:26.717Z,1767.00
2023-05-22T10:08:26.728Z,1817.00
2023-05-22T10:09:26.743Z,1911.00
2023-05-22T10:10:26.786Z,1966.00
2023-05-22T10:11:26.819Z,2038.00
2023-05-22T10:12:26.842Z,2094.00
2023-05-22T10:13:26.847Z,2157.00
2023-05-22T10:14:27.808Z,2176.00
2023-05-22T10:15:26.910Z,2140.00
2023-05-22T10:16:27.023Z,2181.00
2023-05-22T10:17:26.958Z,2187.00
2023-05-22T10:18:26.981Z,2214.00
2023-05-22T10:19:27.305Z,2150.00
2023-05-22T10:20:27.006Z,2204.00
2023-05-22T10:21:27.011Z,2130.00
2023-05-22T10:22:27.063Z,2140.00
2023-05-22T10:23:27.049Z,2125.00
2023-05-22T10:24:27.059Z,2110.00
2023-05-22T10:25:27.058Z,2183.00
2023-05-22T10:26:27.503Z,2194.00
2023-05-22T10:27:27.227Z,2226.00
2023-05-22T10:28:27.069Z,2215.00
2023-05-22T10:29:27.105Z,2235.00
2023-05-22T10:30:27.125Z,2252.00
2023-05-22T10:31:27.078Z,2251.00
2023-05-22T10:32:27.138Z,2232.00
2023-05-22T10:33:27.138Z,2255.00
2023-05-22T10:34:27.100Z,2247.00
2023-05-22T10:35:27.112Z,2185.00
2023-05-22T10:36:27.117Z,2164.00
2023-05-22T10:37:27.264Z,2190.00
2023-05-22T10:38:27.147Z,2241.00
2023-05-22T10:39:27.071Z,2300.00
2023-05-22T10:40:27.094Z,2274.00
2023-05-22T10:41:28.023Z,2269.00
2023-05-22T10:42:27.528Z,2225.00
2023-05-22T10:43:27.216Z,2209.00
2023-05-22T10:44:27.178Z,2203.00
2023-05-22T10:45:27.224Z,2066.00
2023-05-22T10:46:27.242Z,2029.00
2023-05-22T10:47:27.541Z,2035.00
2023-05-22T10:48:27.246Z,2033.00
2023-05-22T10:49:27.249Z,2038.00
2023-05-22T10:50:27.258Z,2019.00
2023-05-22T10:51:27.316Z,2013.00
2023-05-22T10:52:27.302Z,1977.00
2023-05-22T10:53:27.350Z,1884.00
2023-05-22T10:54:27.388Z,1796.00
2023-05-22T10:55:27.390Z,1748.00
2023-05-22T10:56:27.464Z,1652.00
2023-05-22T10:57:27.519Z,1581.00
2023-05-22T10:58:27.483Z,1566.00
2023-05-22T10:59:27.580Z,1543.00
2023-05-22T11:00:27.528Z,1526.00
2023-05-22T11:01:27.621Z,1498.00
2023-05-22T11:02:28.118Z,1472.00
2023-05-22T11:03:27.704Z,1415.00
2023-05-22T11:04:27.725Z,1400.00
2023-05-22T11:05:27.670Z,1363.00
2023-05-22T11:06:27.676Z,1314.00
2023-05-22T11:07:27.757Z,1265.00
2023-05-22T11:08:27.754Z,1198.00
2023-05-22T11:09:27.768Z,1207.00
2023-05-22T11:10:27.832Z,1146.00
2023-05-22T11:11:27.881Z,1073.00
2023-05-22T11:12:28.044Z,1021.00
2023-05-22T11:13:29.323Z,908.00
2023-05-22T11:14:27.992Z,816.00
2023-05-22T11:15:28.060Z,756.00
2023-05-22T11:16:28.013Z,714.00
2023-05-22T11:17:28.563Z,702.00
2023-05-22T11:18:28.082Z,714.00
2023-05-22T11:19:28.114Z,703.00
2023-05-22T11:20:28.150Z,687.00
2023-05-22T11:21:28.117Z,689.00
2023-05-22T11:22:28.549Z,671.00
2023-05-22T11:23:28.191Z,681.00
2023-05-22T11:24:28.235Z,645.00
2023-05-22T11:25:28.265Z,615.00
2023-05-22T11:26:28.328Z,594.00
2023-05-22T11:27:28.528Z,581.00
2023-05-22T11:28:28.384Z,640.00
2023-05-22T11:29:28.406Z,665.00
2023-05-22T11:30:28.429Z,698.00
2023-05-22T11:31:28.647Z,647.00
2023-05-22T11:32:29.012Z,500.00
2023-05-22T11:33:28.551Z,413.00
2023-05-22T11:34:28.688Z,400.00
2023-05-22T11:35:28.681Z,400.00
2023-05-22T11:36:28.650Z,434.00
2023-05-22T11:37:28.681Z,492.00
2023-05-22T11:38:29.007Z,515.00
2023-05-22T11:39:28.737Z,526.00
2023-05-22T11:40:28.757Z,536.00
2023-05-22T11:41:29.592Z,542.00
2023-05-22T11:42:28.785Z,550.00
2023-05-22T11:43:28.837Z,574.00
2023-05-22T11:44:28.904Z,593.00
2023-05-22T11:45:28.943Z,588.00
2023-05-22T11:46:28.977Z,591.00
2023-05-22T11:47:29.144Z,606.00
2023-05-22T11:48:29.022Z,619.00
2023-05-22T11:49:29.066Z,625.00
2023-05-22T11:50:41.727Z,638.00
2023-05-22T11:51:30.116Z,639.00
2023-05-22T11:52:29.092Z,645.00
2023-05-22T11:53:29.104Z,656.00
2023-05-22T11:54:29.071Z,707.00
2023-05-22T11:55:29.046Z,808.00
2023-05-22T11:56:29.036Z,896.00
2023-05-22T11:57:29.062Z,935.00
2023-05-22T11:58:29.015Z,968.00
2023-05-22T11:59:29.143Z,972.00
2023-05-22T12:00:29.063Z,981.00
2023-05-22T12:01:29.017Z,1001.00
2023-05-22T12:02:29.058Z,1036.00
2023-05-22T12:03:29.207Z,1063.00
2023-05-22T12:04:29.065Z,1087.00
2023-05-22T12:05:29.113Z,1115.00
2023-05-22T12:06:29.138Z,1149.00
2023-05-22T12:07:29.183Z,1153.00